createdAt,value
2018-05-12T00:00:44.020Z,9.40
2018-05-12T00:02:47.751Z,7.90
2018-05-12T00:04:50.674Z,8.60
2018-05-12T00:06:53.621Z,8.80
2018-05-12T00:08:56.579Z,9.10
2018-05-12T00:10:59.507Z,9.00
2018-05-12T00:13:02.468Z,9.10
2018-05-12T00:15:05.441Z,9.03
2018-05-12T00:17:08.355Z,8.80
2018-05-12T00:19:12.815Z,8.60
2018-05-12T00:21:15.759Z,7.57
2018-05-12T00:23:18.709Z,6.87
2018-05-12T00:25:21.633Z,7.30
2018-05-12T00:27:25.459Z,8.40
2018-05-12T00:29:29.261Z,7.10
2018-05-12T00:31:32.931Z,8.20
2018-05-12T00:33:35.865Z,8.03
2018-05-12T00:35:38.795Z,7.67
2018-05-12T00:37:41.809Z,8.13
2018-05-12T00:39:45.622Z,9.80
2018-05-12T00:41:49.310Z,9.40
2018-05-12T00:43:53.135Z,8.80
2018-05-12T00:45:56.068Z,8.50
2018-05-12T00:47:59.019Z,9.10
2018-05-12T00:50:01.975Z,7.90
2018-05-12T00:52:04.902Z,8.07
2018-05-12T00:54:07.862Z,8.07
2018-05-12T00:56:10.787Z,7.90
2018-05-12T00:58:14.609Z,7.90
2018-05-12T01:00:18.304Z,8.60
2018-05-12T01:02:21.982Z,7.13
2018-05-12T01:04:24.942Z,6.73
2018-05-12T01:06:27.855Z,8.70
2018-05-12T01:08:30.834Z,9.10
2018-05-12T01:10:34.532Z,7.80
2018-05-12T01:12:37.456Z,7.93
2018-05-12T01:14:40.415Z,7.97
2018-05-12T01:16:44.117Z,7.50
2018-05-12T01:18:47.830Z,7.63
2018-05-12T01:20:51.618Z,7.33
2018-05-12T01:22:55.303Z,7.30
2018-05-12T01:24:59.127Z,8.17
2018-05-12T01:27:02.925Z,7.60
2018-05-12T01:29:05.954Z,7.47
2018-05-12T01:31:08.883Z,7.50
2018-05-12T01:33:12.582Z,8.63
2018-05-12T01:35:16.392Z,8.13
2018-05-12T01:37:20.079Z,7.90
2018-05-12T01:39:23.819Z,8.00
2018-05-12T01:41:26.743Z,6.87
2018-05-12T01:43:31.193Z,7.60
2018-05-12T01:45:34.175Z,7.83
2018-05-12T01:47:37.107Z,7.90
2018-05-12T01:49:40.029Z,8.10
2018-05-12T01:51:43.753Z,7.20
2018-05-12T01:53:46.670Z,7.50
2018-05-12T01:55:49.720Z,8.33
2018-05-12T01:57:52.681Z,7.70
2018-05-12T01:59:56.362Z,7.70
2018-05-12T02:02:00.075Z,8.13
2018-05-12T02:04:03.760Z,7.20
2018-05-12T02:06:07.482Z,7.87
2018-05-12T02:08:11.185Z,7.67
2018-05-12T02:10:14.885Z,7.20
2018-05-12T02:12:18.739Z,8.82
2018-05-12T02:14:21.772Z,7.70
2018-05-12T02:16:25.480Z,8.40
2018-05-12T02:18:28.394Z,8.37
2018-05-12T02:20:31.325Z,8.23
2018-05-12T02:22:35.781Z,8.67
2018-05-12T02:24:38.693Z,8.93
2018-05-12T02:26:41.643Z,8.77
2018-05-12T02:28:44.572Z,7.77
2018-05-12T02:30:47.586Z,7.60
2018-05-12T02:32:51.299Z,7.70
2018-05-12T02:34:54.978Z,8.10
2018-05-12T02:36:58.697Z,8.20
2018-05-12T02:39:01.621Z,7.80
2018-05-12T02:41:04.648Z,8.03
2018-05-12T02:43:08.450Z,7.93
2018-05-12T02:45:12.129Z,7.30
2018-05-12T02:47:15.066Z,8.27
2018-05-12T02:49:17.978Z,8.00
2018-05-12T02:51:20.928Z,8.57
2018-05-12T02:53:23.858Z,8.30
2018-05-12T02:55:26.775Z,8.20
2018-05-12T02:57:30.577Z,8.40
2018-05-12T02:59:33.497Z,8.73
2018-05-12T03:01:36.594Z,7.70
2018-05-12T03:03:39.614Z,7.80
2018-05-12T03:05:42.557Z,7.40
2018-05-12T03:07:45.503Z,6.97
2018-05-12T03:09:48.414Z,7.57
2018-05-12T03:11:51.325Z,7.83
2018-05-12T03:13:55.053Z,8.47
2018-05-12T03:15:57.985Z,7.90
2018-05-12T03:18:00.909Z,8.30
2018-05-12T03:20:04.633Z,8.03
2018-05-12T03:22:07.562Z,7.97
2018-05-12T03:24:10.514Z,8.17
2018-05-12T03:26:13.459Z,7.40
2018-05-12T03:28:17.166Z,7.97
2018-05-12T03:30:20.135Z,7.97
2018-05-12T03:32:23.052Z,7.20
2018-05-12T03:34:26.002Z,8.03
2018-05-12T03:36:28.943Z,8.10
2018-05-12T03:38:31.877Z,8.37
2018-05-12T03:40:34.829Z,8.20
2018-05-12T03:42:37.927Z,8.30
2018-05-12T03:44:41.728Z,7.93
2018-05-12T03:46:45.407Z,7.80
2018-05-12T03:48:49.849Z,8.23
2018-05-12T03:50:53.569Z,8.30
2018-05-12T03:52:56.492Z,8.70
2018-05-12T03:54:59.453Z,8.30
2018-05-12T03:57:02.496Z,8.40
2018-05-12T03:59:06.228Z,9.13
2018-05-12T04:01:09.149Z,7.57
2018-05-12T04:03:12.093Z,8.83
2018-05-12T04:05:27.005Z,9.23
2018-05-12T04:07:42.804Z,7.83
2018-05-12T04:10:03.163Z,7.80
2018-05-12T04:12:17.836Z,8.37
2018-05-12T04:14:21.524Z,8.77
2018-05-12T04:16:24.483Z,9.10
2018-05-12T04:18:28.165Z,8.03
2018-05-12T04:20:31.114Z,9.07
2018-05-12T04:22:34.929Z,7.40
2018-05-12T04:24:37.854Z,8.77
2018-05-12T04:26:41.567Z,8.60
2018-05-12T04:28:44.517Z,8.60
2018-05-12T04:30:47.463Z,7.53
2018-05-12T04:32:50.484Z,8.47
2018-05-12T04:34:53.428Z,8.63
2018-05-12T04:36:57.130Z,7.20
2018-05-12T04:39:00.842Z,8.73
2018-05-12T04:41:03.765Z,8.20
2018-05-12T04:43:06.798Z,8.23
2018-05-12T04:45:09.748Z,7.70
2018-05-12T04:47:12.764Z,8.00
2018-05-12T04:49:16.483Z,8.93
2018-05-12T04:51:19.419Z,8.70
2018-05-12T04:53:23.894Z,8.47
2018-05-12T04:55:26.809Z,8.47
2018-05-12T04:57:29.741Z,8.60
2018-05-12T04:59:32.708Z,8.63
2018-05-12T05:01:36.510Z,7.30
2018-05-12T05:03:40.232Z,8.60
2018-05-12T05:05:43.170Z,8.90
2018-05-12T05:07:46.085Z,9.73
2018-05-12T05:09:49.030Z,9.60
2018-05-12T05:11:52.734Z,9.53
2018-05-12T05:13:55.687Z,9.33
2018-05-12T05:15:58.605Z,9.60
2018-05-12T05:18:02.300Z,8.70
2018-05-12T05:20:05.245Z,8.53
2018-05-12T05:22:08.170Z,9.83
2018-05-12T05:24:11.110Z,9.50
2018-05-12T05:26:14.150Z,10.70
2018-05-12T05:28:17.126Z,10.07
2018-05-12T05:30:20.835Z,11.17
2018-05-12T05:32:24.517Z,11.57
2018-05-12T05:34:28.967Z,10.90
2018-05-12T05:36:31.896Z,12.90
2018-05-12T05:38:35.026Z,12.77
2018-05-12T05:40:38.725Z,12.60
2018-05-12T05:42:41.657Z,11.70
2018-05-12T05:44:44.626Z,12.37
2018-05-12T05:46:47.668Z,12.20
2018-05-12T05:48:50.638Z,11.97
2018-05-12T05:50:53.589Z,13.63
2018-05-12T05:52:56.526Z,11.27
2018-05-12T05:54:59.477Z,12.10
2018-05-12T05:57:02.405Z,11.83
2018-05-12T05:59:05.355Z,12.80
2018-05-12T06:01:09.046Z,12.47
2018-05-12T06:03:12.759Z,12.67
2018-05-12T06:05:16.469Z,11.50
2018-05-12T06:07:19.401Z,11.67
2018-05-12T06:09:22.341Z,12.90
2018-05-12T06:11:25.266Z,12.50
2018-05-12T06:13:28.282Z,12.40
2018-05-12T06:15:32.001Z,11.10
2018-05-12T06:17:34.933Z,12.30
2018-05-12T06:19:39.490Z,11.17
2018-05-12T06:21:43.173Z,10.60
2018-05-12T06:23:46.873Z,11.33
2018-05-12T06:25:50.590Z,10.97
2018-05-12T06:27:54.399Z,12.60
2018-05-12T06:29:57.367Z,11.23
2018-05-12T06:32:01.047Z,12.10
2018-05-12T06:34:04.006Z,12.00
2018-05-12T06:36:06.932Z,11.00
2018-05-12T06:38:10.640Z,10.87
2018-05-12T06:40:14.345Z,10.20
2018-05-12T06:42:18.025Z,10.60
2018-05-12T06:44:21.850Z,10.40
2018-05-12T06:46:25.530Z,11.00
2018-05-12T06:48:29.245Z,10.10
2018-05-12T06:50:32.214Z,12.23
2018-05-12T06:52:35.902Z,10.70
2018-05-12T06:54:39.643Z,11.57
2018-05-12T06:56:42.565Z,12.57
2018-05-12T06:58:45.691Z,10.70
2018-05-12T07:00:49.408Z,10.77
2018-05-12T07:02:52.348Z,12.80
2018-05-12T07:04:56.175Z,10.47
2018-05-12T07:06:59.853Z,12.03
2018-05-12T07:09:03.593Z,12.07
2018-05-12T07:11:06.545Z,12.83
2018-05-12T07:13:10.244Z,11.60
2018-05-12T07:15:13.973Z,12.13
2018-05-12T07:17:16.900Z,12.43
2018-05-12T07:19:19.872Z,13.93
2018-05-12T07:21:22.794Z,11.40
2018-05-12T07:23:26.490Z,11.87
2018-05-12T07:25:29.464Z,11.97
2018-05-12T07:27:33.165Z,12.47
2018-05-12T07:29:36.944Z,12.73
2018-05-12T07:31:39.856Z,11.97
2018-05-12T07:33:43.685Z,11.80
2018-05-12T07:35:46.710Z,12.70
2018-05-12T07:37:49.741Z,11.50
2018-05-12T07:39:53.469Z,10.97
2018-05-12T07:41:56.496Z,12.88
2018-05-12T07:43:59.456Z,12.00
2018-05-12T07:46:02.397Z,9.50
2018-05-12T07:48:05.341Z,10.27
2018-05-12T07:50:08.316Z,9.80
2018-05-12T07:52:11.248Z,9.67
2018-05-12T07:54:14.226Z,10.67
2018-05-12T07:56:17.934Z,12.20
2018-05-12T07:58:21.634Z,10.80
2018-05-12T08:00:24.704Z,12.57
2018-05-12T08:02:28.389Z,12.37
2018-05-12T08:04:32.137Z,12.90
2018-05-12T08:06:35.061Z,12.10
2018-05-12T08:08:38.026Z,12.60
2018-05-12T08:10:40.970Z,10.20
2018-05-12T08:12:43.929Z,12.27
2018-05-12T08:14:47.645Z,12.23
2018-05-12T08:16:50.569Z,13.40
2018-05-12T08:18:53.523Z,13.23
2018-05-12T08:20:56.582Z,11.07
2018-05-12T08:23:00.278Z,11.20
2018-05-12T08:25:04.007Z,15.87
2018-05-12T08:27:07.781Z,12.27
2018-05-12T08:29:10.729Z,11.97
2018-05-12T08:31:13.764Z,12.40
2018-05-12T08:33:16.693Z,13.93
2018-05-12T08:35:19.657Z,14.07
2018-05-12T08:37:22.611Z,14.40
2018-05-12T08:39:25.560Z,14.60
2018-05-12T08:41:28.489Z,14.03
2018-05-12T08:43:31.446Z,12.63
2018-05-12T08:45:35.190Z,15.03
2018-05-12T08:47:38.231Z,14.13
2018-05-12T08:49:41.213Z,14.50
2018-05-12T08:51:44.893Z,14.60
2018-05-12T08:53:48.593Z,15.07
2018-05-12T08:55:52.305Z,15.07
2018-05-12T08:58:01.804Z,16.10
2018-05-12T09:00:05.377Z,16.17
2018-05-12T09:02:08.697Z,16.23
2018-05-12T09:04:11.625Z,17.73
2018-05-12T09:06:14.617Z,14.40
2018-05-12T09:08:17.552Z,15.60
2018-05-12T09:10:21.317Z,15.97
2018-05-12T09:12:24.235Z,14.83
2018-05-12T09:14:27.163Z,15.27
2018-05-12T09:16:30.113Z,15.20
2018-05-12T09:18:33.828Z,14.40
2018-05-12T09:20:37.543Z,15.60
2018-05-12T09:22:40.456Z,13.30
2018-05-12T09:24:43.397Z,15.57
2018-05-12T09:26:47.121Z,14.70
2018-05-12T09:28:50.054Z,14.20
2018-05-12T09:30:53.015Z,13.60
2018-05-12T09:32:56.040Z,12.80
2018-05-12T09:34:58.994Z,11.70
2018-05-12T09:37:01.937Z,12.90
2018-05-12T09:39:04.888Z,11.50
2018-05-12T09:41:07.837Z,12.73
2018-05-12T09:43:10.775Z,13.90
2018-05-12T09:45:13.797Z,12.20
2018-05-12T09:47:16.718Z,12.10
2018-05-12T09:49:19.645Z,12.17
2018-05-12T09:51:22.636Z,11.47
2018-05-12T09:53:25.665Z,12.07
2018-05-12T09:55:29.413Z,13.33
2018-05-12T09:57:32.365Z,11.47
2018-05-12T09:59:35.309Z,12.33
2018-05-12T10:01:39.046Z,11.70
2018-05-12T10:03:41.973Z,11.03
2018-05-12T10:05:44.918Z,9.70
2018-05-12T10:07:47.860Z,11.20
2018-05-12T10:09:50.785Z,10.47
2018-05-12T10:11:53.743Z,10.17
2018-05-12T10:13:56.665Z,10.10
2018-05-12T10:15:59.706Z,10.07
2018-05-12T10:18:03.398Z,10.17
2018-05-12T10:20:07.121Z,10.53
2018-05-12T10:22:10.060Z,10.07
2018-05-12T10:24:13.760Z,10.47
2018-05-12T10:26:16.745Z,8.50
2018-05-12T10:28:20.469Z,8.70
2018-05-12T10:30:23.505Z,9.00
2018-05-12T10:32:26.450Z,9.80
2018-05-12T10:34:30.139Z,11.13
2018-05-12T10:36:33.090Z,9.87
2018-05-12T10:38:36.042Z,11.10
2018-05-12T10:40:39.118Z,9.77
2018-05-12T10:42:42.036Z,9.07
2018-05-12T10:44:44.998Z,9.37
2018-05-12T10:46:47.911Z,8.10
2018-05-12T10:48:51.613Z,7.87
2018-05-12T10:50:56.081Z,9.17
2018-05-12T10:52:59.009Z,9.03
2018-05-12T10:55:01.925Z,8.57
2018-05-12T10:57:05.001Z,8.70
2018-05-12T10:59:08.701Z,8.87
2018-05-12T11:01:12.413Z,8.33
2018-05-12T11:03:15.385Z,9.10
2018-05-12T11:05:19.097Z,8.57
2018-05-12T11:07:22.046Z,8.37
2018-05-12T11:09:25.730Z,8.47
2018-05-12T11:11:28.690Z,8.03
2018-05-12T11:13:31.735Z,8.30
2018-05-12T11:15:34.757Z,8.27
2018-05-12T11:17:37.700Z,7.70
2018-05-12T11:19:41.377Z,7.90
2018-05-12T11:21:45.152Z,7.40
2018-05-12T11:23:48.041Z,8.00
2018-05-12T11:25:51.019Z,7.37
2018-05-12T11:27:53.978Z,7.67
2018-05-12T11:29:56.894Z,7.23
2018-05-12T11:31:59.814Z,8.43
2018-05-12T11:34:02.766Z,8.23
2018-05-12T11:36:06.472Z,7.33
2018-05-12T11:38:10.292Z,7.60
2018-05-12T11:40:13.970Z,9.17
2018-05-12T11:42:17.671Z,6.83
2018-05-12T11:44:21.547Z,8.13
2018-05-12T11:46:24.423Z,7.53
2018-05-12T11:48:27.409Z,6.57
2018-05-12T11:50:30.322Z,6.30
2018-05-12T11:52:33.253Z,8.07
2018-05-12T11:54:36.250Z,7.57
2018-05-12T11:56:39.229Z,6.90
2018-05-12T11:58:42.272Z,7.27
2018-05-12T12:00:45.948Z,7.33
2018-05-12T12:02:49.776Z,7.03
2018-05-12T12:04:53.636Z,6.90
2018-05-12T12:06:56.559Z,7.70
2018-05-12T12:09:00.269Z,8.70
2018-05-12T12:11:04.021Z,7.70
2018-05-12T12:13:06.985Z,7.77
2018-05-12T12:15:10.051Z,7.80
2018-05-12T12:17:12.976Z,8.40
2018-05-12T12:19:16.455Z,7.20
2018-05-12T12:21:19.382Z,6.80
2018-05-12T12:23:23.057Z,6.60
2018-05-12T12:25:26.171Z,7.47
2018-05-12T12:27:30.078Z,6.37
2018-05-12T12:29:33.804Z,7.20
2018-05-12T12:31:36.757Z,6.90
2018-05-12T12:33:40.448Z,6.63
2018-05-12T12:35:44.159Z,7.00
2018-05-12T12:37:47.961Z,7.10
2018-05-12T12:39:51.656Z,6.77
2018-05-12T12:41:55.372Z,7.70
2018-05-12T12:43:59.054Z,6.43
2018-05-12T12:46:02.840Z,6.27
2018-05-12T12:48:05.757Z,6.73
2018-05-12T12:50:08.680Z,8.83
2018-05-12T12:52:11.741Z,6.37
2018-05-12T12:54:14.650Z,6.10
2018-05-12T12:56:17.643Z,6.47
2018-05-12T12:58:20.696Z,7.67
2018-05-12T13:00:23.539Z,7.60
2018-05-12T13:02:26.914Z,7.28
2018-05-12T13:04:30.838Z,6.70
2018-05-12T13:06:34.522Z,6.53
2018-05-12T13:08:38.204Z,6.23
2018-05-12T13:10:41.274Z,5.90
2018-05-12T13:12:44.213Z,6.47
2018-05-12T13:14:47.889Z,6.90
2018-05-12T13:16:51.615Z,5.53
2018-05-12T13:18:54.774Z,6.60
2018-05-12T13:20:57.757Z,5.93
2018-05-12T13:23:00.669Z,5.60
2018-05-12T13:25:03.591Z,6.97
2018-05-12T13:27:06.562Z,6.73
2018-05-12T13:29:10.320Z,6.03
2018-05-12T13:31:14.018Z,7.03
2018-05-12T13:33:17.755Z,6.50
2018-05-12T13:35:20.663Z,6.90
2018-05-12T13:37:23.587Z,5.50
2018-05-12T13:39:27.326Z,6.57
2018-05-12T13:41:30.246Z,6.37
2018-05-12T13:43:33.984Z,6.70
2018-05-12T13:45:36.918Z,6.00
2018-05-12T13:47:39.834Z,6.10
2018-05-12T13:49:43.565Z,6.67
2018-05-12T13:51:46.513Z,6.73
2018-05-12T13:53:50.209Z,6.10
2018-05-12T13:55:53.998Z,6.07
2018-05-12T13:57:56.905Z,5.90
2018-05-12T13:59:59.829Z,6.57
2018-05-12T14:02:02.785Z,5.93
2018-05-12T14:04:05.709Z,5.97
2018-05-12T14:06:08.748Z,5.27
2018-05-12T14:08:11.672Z,6.20
2018-05-12T14:10:14.609Z,5.33
2018-05-12T14:12:17.570Z,5.50
2018-05-12T14:14:21.275Z,5.90
2018-05-12T14:16:25.073Z,5.70
2018-05-12T14:18:28.809Z,5.40
2018-05-12T14:20:31.754Z,5.57
2018-05-12T14:22:35.435Z,5.90
2018-05-12T14:24:38.465Z,5.43
2018-05-12T14:26:41.373Z,5.40
2018-05-12T14:28:44.339Z,5.10
2018-05-12T14:30:47.253Z,5.37
2018-05-12T14:32:50.200Z,5.30
2018-05-12T14:34:53.151Z,6.00
2018-05-12T14:36:56.826Z,6.23
2018-05-12T14:39:00.537Z,5.20
2018-05-12T14:41:04.218Z,5.20
2018-05-12T14:43:07.230Z,4.93
2018-05-12T14:45:11.032Z,5.83
2018-05-12T14:47:15.472Z,5.47
2018-05-12T14:49:18.431Z,5.03
2018-05-12T14:51:22.103Z,4.80
2018-05-12T14:53:25.046Z,5.37
2018-05-12T14:55:28.301Z,5.40
2018-05-12T14:57:31.990Z,5.00
2018-05-12T14:59:34.892Z,5.60
2018-05-12T15:01:38.597Z,5.87
2018-05-12T15:03:41.510Z,6.07
2018-05-12T15:05:44.426Z,5.83
2018-05-12T15:07:47.353Z,5.70
2018-05-12T15:09:51.105Z,6.30
2018-05-12T15:11:54.055Z,6.07
2018-05-12T15:13:56.968Z,4.67
2018-05-12T15:16:00.680Z,5.50
2018-05-12T15:18:03.621Z,4.53
2018-05-12T15:20:06.540Z,4.90
2018-05-12T15:22:09.475Z,5.67
2018-05-12T15:24:12.410Z,5.60
2018-05-12T15:26:16.106Z,5.53
2018-05-12T15:28:19.782Z,5.57
2018-05-12T15:30:22.701Z,5.00
2018-05-12T15:32:26.427Z,4.80
2018-05-12T15:34:29.361Z,5.20
2018-05-12T15:36:32.353Z,5.17
2018-05-12T15:38:36.048Z,5.77
2018-05-12T15:40:38.980Z,4.33
2018-05-12T15:42:42.316Z,4.73
2018-05-12T15:44:45.230Z,5.10
2018-05-12T15:46:48.155Z,4.77
2018-05-12T15:48:51.097Z,5.27
2018-05-12T15:50:54.015Z,5.53
2018-05-12T15:52:56.994Z,4.73
2018-05-12T15:55:00.138Z,5.27
2018-05-12T15:57:03.827Z,5.50
2018-05-12T15:59:07.501Z,4.90
2018-05-12T16:01:10.870Z,4.60
2018-05-12T16:03:13.814Z,4.67
2018-05-12T16:05:17.488Z,5.13
2018-05-12T16:07:21.310Z,5.13
2018-05-12T16:09:24.988Z,5.30
2018-05-12T16:11:27.950Z,5.33
2018-05-12T16:13:30.873Z,4.87
2018-05-12T16:15:34.567Z,5.20
2018-05-12T16:17:38.269Z,4.67
2018-05-12T16:19:41.957Z,4.67
2018-05-12T16:21:45.709Z,5.50
2018-05-12T16:23:48.656Z,4.50
2018-05-12T16:25:52.423Z,5.07
2018-05-12T16:27:56.071Z,5.30
2018-05-12T16:29:58.990Z,4.63
2018-05-12T16:32:01.933Z,5.13
2018-05-12T16:34:04.861Z,4.67
2018-05-12T16:36:09.431Z,4.43
2018-05-12T16:38:12.399Z,5.23
2018-05-12T16:40:15.333Z,5.10
2018-05-12T16:42:18.281Z,5.00
2018-05-12T16:44:21.205Z,4.40
2018-05-12T16:46:24.234Z,4.60
2018-05-12T16:48:27.920Z,4.47
2018-05-12T16:50:30.898Z,4.87
2018-05-12T16:52:34.622Z,4.97
2018-05-12T16:54:38.293Z,5.37
2018-05-12T16:56:41.268Z,4.53
2018-05-12T16:58:44.282Z,4.70
2018-05-12T17:00:47.965Z,4.20
2018-05-12T17:02:50.893Z,4.47
2018-05-12T17:04:53.848Z,4.77
2018-05-12T17:06:57.569Z,4.80
2018-05-12T17:09:00.497Z,5.23
2018-05-12T17:11:03.427Z,4.20
2018-05-12T17:13:06.447Z,4.87
2018-05-12T17:15:09.476Z,5.40
2018-05-12T17:17:13.278Z,4.60
2018-05-12T17:19:16.949Z,4.53
2018-05-12T17:21:19.875Z,5.03
2018-05-12T17:23:22.886Z,4.70
2018-05-12T17:25:25.802Z,4.70
2018-05-12T17:27:30.263Z,4.63
2018-05-12T17:29:33.181Z,4.10
2018-05-12T17:31:36.123Z,5.07
2018-05-12T17:33:39.042Z,5.13
2018-05-12T17:35:42.177Z,4.82
2018-05-12T17:37:45.144Z,4.97
2018-05-12T17:39:48.834Z,5.87
2018-05-12T17:41:52.563Z,5.20
2018-05-12T17:43:56.256Z,5.60
2018-05-12T17:45:59.934Z,6.10
2018-05-12T17:48:04.397Z,5.73
2018-05-12T17:50:07.331Z,5.33
2018-05-12T17:52:11.051Z,5.67
2018-05-12T17:54:14.756Z,4.87
2018-05-12T17:56:18.436Z,4.93
2018-05-12T17:58:22.137Z,5.77
2018-05-12T18:00:25.814Z,4.80
2018-05-12T18:02:28.750Z,5.30
2018-05-12T18:04:31.669Z,5.40
2018-05-12T18:06:34.597Z,4.97
2018-05-12T18:08:38.408Z,5.53
2018-05-12T18:10:42.085Z,4.67
2018-05-12T18:12:45.903Z,5.40
2018-05-12T18:14:49.586Z,4.60
2018-05-12T18:16:53.404Z,4.47
2018-05-12T18:18:57.114Z,5.50
2018-05-12T18:21:00.107Z,5.20
2018-05-12T18:23:03.053Z,4.30
2018-05-12T18:25:06.737Z,5.00
2018-05-12T18:27:09.780Z,5.03
2018-05-12T18:29:12.712Z,4.93
2018-05-12T18:31:16.034Z,5.30
2018-05-12T18:33:19.751Z,4.97
2018-05-12T18:35:22.665Z,4.63
2018-05-12T18:37:25.629Z,4.90
2018-05-12T18:39:28.578Z,5.27
2018-05-12T18:41:31.537Z,4.90
2018-05-12T18:43:34.503Z,5.47
2018-05-12T18:45:37.522Z,5.40
2018-05-12T18:47:41.354Z,5.37
2018-05-12T18:49:44.277Z,4.70
2018-05-12T18:51:47.241Z,5.80
2018-05-12T18:53:50.318Z,4.93
2018-05-12T18:55:53.237Z,5.30
2018-05-12T18:57:56.149Z,5.60
2018-05-12T18:59:59.099Z,5.10
2018-05-12T19:02:02.018Z,4.80
2018-05-12T19:04:04.945Z,4.67
2018-05-12T19:06:08.068Z,5.00
2018-05-12T19:08:11.734Z,5.10
2018-05-12T19:10:14.683Z,4.97
2018-05-12T19:12:17.602Z,4.77
2018-05-12T19:14:20.524Z,4.30
2018-05-12T19:16:24.233Z,4.73
2018-05-12T19:18:27.154Z,4.00
2018-05-12T19:20:30.093Z,5.40
2018-05-12T19:22:33.118Z,4.70
2018-05-12T19:24:36.872Z,5.20
2018-05-12T19:26:39.824Z,4.73
2018-05-12T19:28:43.513Z,4.73
2018-05-12T19:30:46.465Z,4.77
2018-05-12T19:32:49.417Z,4.30
2018-05-12T19:34:53.123Z,4.97
2018-05-12T19:36:56.093Z,4.97
2018-05-12T19:38:59.770Z,4.87
2018-05-12T19:41:02.754Z,4.30
2018-05-12T19:43:05.661Z,4.40
2018-05-12T19:45:09.370Z,5.30
2018-05-12T19:47:12.301Z,5.10
2018-05-12T19:49:15.286Z,5.57
2018-05-12T19:51:18.256Z,5.33
2018-05-12T19:53:21.185Z,5.20
2018-05-12T19:55:24.986Z,4.93
2018-05-12T19:57:28.666Z,5.03
2018-05-12T19:59:31.581Z,4.80
2018-05-12T20:01:34.525Z,5.70
2018-05-12T20:03:37.448Z,4.40
2018-05-12T20:05:40.391Z,5.23
2018-05-12T20:07:43.305Z,4.33
2018-05-12T20:09:46.266Z,4.00
2018-05-12T20:11:49.193Z,4.97
2018-05-12T20:13:52.242Z,4.50
2018-05-12T20:15:56.063Z,4.40
2018-05-12T20:17:58.991Z,4.70
2018-05-12T20:20:01.987Z,5.13
2018-05-12T20:22:04.933Z,5.10
2018-05-12T20:24:07.860Z,5.20
2018-05-12T20:26:11.577Z,4.70
2018-05-12T20:28:15.376Z,4.50
2018-05-12T20:30:19.178Z,5.40
2018-05-12T20:32:22.885Z,4.57
2018-05-12T20:34:26.656Z,4.80
2018-05-12T20:36:29.605Z,5.00
2018-05-12T20:38:32.548Z,4.60
2018-05-12T20:40:36.258Z,4.87
2018-05-12T20:42:39.174Z,4.70
2018-05-12T20:44:42.212Z,4.60
2018-05-12T20:46:46.025Z,5.17
2018-05-12T20:48:48.939Z,5.70
2018-05-12T20:50:51.889Z,4.50
2018-05-12T20:52:54.819Z,5.43
2018-05-12T20:54:57.766Z,4.50
2018-05-12T20:57:00.825Z,4.30
2018-05-12T20:59:04.520Z,5.57
2018-05-12T21:01:08.226Z,4.40
2018-05-12T21:03:11.953Z,5.00
2018-05-12T21:05:14.910Z,5.03
2018-05-12T21:07:18.595Z,4.60
2018-05-12T21:09:22.301Z,4.67
2018-05-12T21:11:26.116Z,4.57
2018-05-12T21:13:29.911Z,4.90
2018-05-12T21:15:33.596Z,4.13
2018-05-12T21:17:37.413Z,4.50
2018-05-12T21:19:40.412Z,5.03
2018-05-12T21:21:43.332Z,5.10
2018-05-12T21:23:46.329Z,4.53
2018-05-12T21:25:49.244Z,4.30
2018-05-12T21:27:52.953Z,5.43
2018-05-12T21:29:56.186Z,4.80
2018-05-12T21:31:59.103Z,5.00
2018-05-12T21:34:02.797Z,4.90
2018-05-12T21:36:06.486Z,4.63
2018-05-12T21:38:09.425Z,4.50
2018-05-12T21:40:12.340Z,5.43
2018-05-12T21:42:15.371Z,4.47
2018-05-12T21:44:18.322Z,4.70
2018-05-12T21:46:21.242Z,4.60
2018-05-12T21:48:24.318Z,5.60
2018-05-12T21:50:27.252Z,5.60
2018-05-12T21:52:30.171Z,4.63
2018-05-12T21:54:33.930Z,5.20
2018-05-12T21:56:36.863Z,5.10
2018-05-12T21:58:39.786Z,5.70
2018-05-12T22:00:42.737Z,5.30
2018-05-12T22:02:45.673Z,5.40
2018-05-12T22:04:48.687Z,5.90
2018-05-12T22:06:52.492Z,5.67
2018-05-12T22:08:56.189Z,6.20
2018-05-12T22:10:59.857Z,4.93
2018-05-12T22:13:02.793Z,5.57
2018-05-12T22:15:05.714Z,5.50
2018-05-12T22:17:08.736Z,5.40
2018-05-12T22:19:12.541Z,5.50
2018-05-12T22:21:16.225Z,5.67
2018-05-12T22:23:20.061Z,5.17
2018-05-12T22:25:22.993Z,5.30
2018-05-12T22:27:26.004Z,5.60
2018-05-12T22:29:29.809Z,5.57
2018-05-12T22:31:33.486Z,5.40
2018-05-12T22:33:36.425Z,4.93
2018-05-12T22:35:39.333Z,5.30
2018-05-12T22:37:42.266Z,5.17
2018-05-12T22:39:45.206Z,5.90
2018-05-12T22:41:48.121Z,5.93
2018-05-12T22:43:52.039Z,4.53
2018-05-12T22:45:54.953Z,5.33
2018-05-12T22:47:57.932Z,5.30
2018-05-12T22:50:00.957Z,5.13
2018-05-12T22:52:04.663Z,5.13
2018-05-12T22:54:08.353Z,5.40
2018-05-12T22:56:12.067Z,5.43
2018-05-12T22:58:15.757Z,5.85
2018-05-12T23:00:21.970Z,5.73
2018-05-12T23:02:24.885Z,5.50
2018-05-12T23:04:27.801Z,5.47
2018-05-12T23:06:31.185Z,4.93
2018-05-12T23:08:34.109Z,5.10
2018-05-12T23:10:37.251Z,4.80
2018-05-12T23:12:40.336Z,4.93
2018-05-12T23:14:43.276Z,4.90
2018-05-12T23:16:46.198Z,5.50
2018-05-12T23:18:49.165Z,5.50
2018-05-12T23:20:52.845Z,5.17
2018-05-12T23:22:57.347Z,5.10
2018-05-12T23:25:00.297Z,5.00
2018-05-12T23:27:03.224Z,5.53
2018-05-12T23:29:06.165Z,5.37
2018-05-12T23:31:09.102Z,5.70
2018-05-12T23:33:12.315Z,4.70
2018-05-12T23:35:15.997Z,5.30
2018-05-12T23:37:19.676Z,5.33
2018-05-12T23:39:22.904Z,5.83
2018-05-12T23:41:26.589Z,6.23
2018-05-12T23:43:30.404Z,6.27
2018-05-12T23:45:34.105Z,5.03
2018-05-12T23:47:37.805Z,5.27
2018-05-12T23:49:41.554Z,5.20
2018-05-12T23:51:44.483Z,5.53
2018-05-12T23:53:48.205Z,5.17
2018-05-12T23:55:51.126Z,5.60
2018-05-12T23:57:54.152Z,5.50
2018-05-12T23:59:58.602Z,5.13
